EW7164 Weather Reports


Display with metric or nautical units.
time (UTC)temp
F
wind
direction
speed
MPH
gust
MPH
rain 1hr
in
rain 24hr
in
rain mn
in
humidity
%
barometer
mb
20190721062508 82 266 6.0 9.0 0.00 0.00 0.00 59 1003.9
20190721062009 82 249 7.0 10.0 0.00 0.00 0.00 59 1003.9
20190721061508 82 250 8.0 11.0 0.00 0.00 0.00 60 1003.9
20190721061008 82 256 8.0 12.0 0.00 0.00 0.00 61 1003.9
20190721060507 82 252 8.0 11.0 0.00 0.00 0.00 61 1003.9
20190721060008 82 249 9.0 13.0 0.00 0.00 0.00 61 1003.9
20190721055508 82 251 8.0 11.0 0.00 0.00 0.00 60 1003.9
20190721055008 82 250 8.0 12.0 0.00 0.00 0.00 61 1004.0
20190721054507 82 259 8.0 12.0 0.00 0.00 0.00 60 1004.1
20190721054008 82 253 9.0 11.0 0.00 0.00 0.00 60 1004.2
20190721053507 82 261 10.0 15.0 0.00 0.00 0.00 59 1004.2
20190721053008 82 250 9.0 13.0 0.00 0.00 0.00 59 1004.3
20190721052508 82 259 9.0 12.0 0.00 0.00 0.00 59 1004.4
20190721052009 82 252 9.0 12.0 0.00 0.00 0.00 61 1004.4
20190721051507 82 251 10.0 12.0 0.00 0.00 0.00 61 1004.4
20190721051008 81 244 11.0 14.0 0.00 0.00 0.00 63 1004.4
20190721050508 81 253 9.0 13.0 0.00 0.00 0.00 63 1004.4
20190721050008 81 245 9.0 12.0 0.00 0.00 0.00 64 1004.4
20190721045508 81 240 12.0 17.0 0.00 0.00 0.00 63 1004.4
20190721045008 81 238 11.0 16.0 0.00 0.00 0.00 64 1004.6
20190721044508 81 255 11.0 16.0 0.00 0.00 0.00 64 1004.7
20190721044009 81 244 12.0 16.0 0.00 0.00 0.00 62 1004.6
20190721043509 81 238 11.0 16.0 0.00 0.00 0.00 62 1004.6
20190721043010 81 238 10.0 14.0 0.00 0.00 0.00 62 1004.6
20190721042511 81 244 13.0 18.0 0.00 0.00 0.00 61 1004.7
20190721042009 81 233 12.0 16.0 0.00 0.00 0.00 61 1004.7
20190721041509 81 236 11.0 16.0 0.00 0.00 0.00 61 1004.7
20190721041008 81 234 14.0 19.0 0.00 0.00 0.00 60 1004.8
20190721040512 81 243 12.0 17.0 0.00 0.00 0.00 60 1004.8
20190721035507 81 240 13.0 19.0 0.00 0.00 0.00 59 1004.6
20190721035008 81 242 14.0 20.0 0.00 0.00 0.00 59 1004.6
20190721034507 81 233 14.0 21.0 0.00 0.00 0.00 59 1004.7
20190721034008 81 236 13.0 19.0 0.00 0.00 0.00 58 1004.8
20190721033508 80 239 13.0 18.0 0.00 0.00 0.00 58 1004.9
20190721033009 80 244 14.0 20.0 0.00 0.00 0.00 58 1005.1
20190721032507 81 238 13.0 19.0 0.00 0.00 0.00 57 1005.2
20190721032008 81 238 14.0 20.0 0.00 0.00 0.00 58 1005.2
20190721031507 81 246 12.0 17.0 0.00 0.00 0.00 57 1005.2
20190721031008 81 238 13.0 20.0 0.00 0.00 0.00 57 1005.2
20190721030508 81 240 12.0 18.0 0.00 0.00 0.00 57 1005.4
20190721030009 81 233 12.0 17.0 0.00 0.00 0.00 57 1005.3
20190721025507 81 235 11.0 17.0 0.00 0.00 0.00 57 1005.4
20190721025009 81 228 13.0 19.0 0.00 0.00 0.00 57 1005.5
20190721024508 81 244 9.0 13.0 0.00 0.00 0.00 56 1005.8
20190721024009 82 234 8.0 12.0 0.00 0.00 0.00 56 1005.6
20190721023507 82 235 10.0 14.0 0.00 0.00 0.00 56 1005.7
20190721023008 82 227 11.0 17.0 0.00 0.00 0.00 56 1005.6
20190721022508 81 235 9.0 13.0 0.00 0.00 0.00 56 1005.7
20190721022009 81 231 10.0 15.0 0.00 0.00 0.00 56 1005.7
20190721021508 81 232 10.0 14.0 0.00 0.00 0.00 57 1005.8
20190721021008 81 239 10.0 13.0 0.00 0.00 0.00 57 1005.9
20190721020508 81 238 11.0 16.0 0.00 0.00 0.00 57 1006.0
20190721020009 81 233 9.0 13.0 0.00 0.00 0.00 56 1006.0
20190721015508 81 235 10.0 16.0 0.00 0.00 0.00 56 1006.0
20190721015009 81 227 10.0 15.0 0.00 0.00 0.00 55 1006.0
20190721014508 81 236 9.0 12.0 0.00 0.00 0.00 55 1006.1
20190721014009 82 235 10.0 15.0 0.00 0.00 0.00 55 1006.1
20190721013507 81 245 12.0 18.0 0.00 0.00 0.00 54 1006.0
20190721013009 81 236 10.0 13.0 0.00 0.00 0.00 54 1006.1
20190721012507 81 242 7.0 9.0 0.00 0.00 0.00 53 1006.2
20190721012008 81 250 8.0 10.0 0.00 0.00 0.00 53 1006.2
20190721011507 82 227 7.0 12.0 0.00 0.00 0.00 52 1006.2
20190721011007 82 222 7.0 10.0 0.00 0.00 0.00 52 1006.2
20190721010508 82 250 6.0 10.0 0.00 0.00 0.00 52 1006.3
20190721010009 82 248 8.0 13.0 0.00 0.00 0.00 52 1006.2
20190721005509 82 226 8.0 13.0 0.00 0.00 0.00 52 1006.3
20190721005008 82 222 9.0 13.0 0.00 0.00 0.00 52 1006.3
20190721004507 82 229 10.0 15.0 0.00 0.00 0.00 52 1006.3
20190721004008 82 237 10.0 15.0 0.00 0.00 0.00 51 1006.3
20190721003508 82 225 10.0 16.0 0.00 0.00 0.00 52 1006.3
20190721003009 83 242 9.0 13.0 0.00 0.00 0.00 51 1006.6
20190721002507 83 238 10.0 15.0 0.00 0.00 0.00 51 1006.6
20190721002010 83 250 9.0 14.0 0.00 0.00 0.00 50 1006.7
20190721001507 83 236 7.0 11.0 0.00 0.00 0.00 51 1006.7
20190721001008 83 258 6.0 8.0 0.00 0.00 0.00 51 1006.6
20190721000508 83 250 7.0 10.0 0.00 0.00 0.00 51 1006.5
20190721000010 83 223 8.0 11.0 0.00 0.00 0.00 50 1006.4
20190720235508 83 239 7.0 11.0 0.00 0.00 0.00 50 1006.3
20190720235008 83 242 7.0 11.0 0.00 0.00 0.00 52 1006.4
20190720234507 82 242 8.0 12.0 0.00 0.00 0.00 52 1006.3
20190720234008 82 221 9.0 11.0 0.00 0.00 0.00 51 1006.5
20190720233507 83 231 10.0 15.0 0.00 0.00 0.00 50 1006.6
20190720233009 83 245 9.0 13.0 0.00 0.00 0.00 49 1006.7
20190720232508 83 244 10.0 14.0 0.00 0.00 0.00 48 1006.6
20190720232008 83 252 10.0 14.0 0.00 0.00 0.00 48 1006.5
20190720231508 83 244 10.0 16.0 0.00 0.00 0.00 47 1006.3
20190720231008 83 235 13.0 18.0 0.00 0.00 0.00 48 1006.3
20190720230508 83 231 16.0 24.0 0.00 0.00 0.00 48 1005.9
20190720230009 83 233 16.0 23.0 0.00 0.00 0.00 47 1005.8
20190720225008 83 232 15.0 23.0 0.00 0.00 0.00 48 1005.5
20190720224508 83 233 15.0 24.0 0.00 0.00 0.00 48 1005.5
20190720224008 83 232 13.0 20.0 0.00 0.00 0.00 48 1005.5
20190720223508 84 236 15.0 23.0 0.00 0.00 0.00 47 1005.6
20190720223009 84 227 15.0 22.0 0.00 0.00 0.00 47 1005.5
20190720222507 84 240 12.0 18.0 0.00 0.00 0.00 49 1005.4
20190720222008 84 235 14.0 19.0 0.00 0.00 0.00 48 1005.2
20190720221507 84 235 15.0 21.0 0.00 0.00 0.00 49 1005.2
20190720221008 84 232 12.0 19.0 0.00 0.00 0.00 50 1005.3
20190720220508 85 221 14.0 20.0 0.00 0.00 0.00 50 1005.3
20190720220009 85 225 11.0 15.0 0.00 0.00 0.00 50 1005.3
20190720215508 85 232 12.0 18.0 0.00 0.00 0.00 50 1005.3
20190720215009 85 225 9.0 15.0 0.00 0.00 0.00 51 1005.4
20190720214508 85 241 10.0 15.0 0.00 0.00 0.00 51 1005.5
20190720214008 85 240 10.0 14.0 0.00 0.00 0.00 51 1005.5
20190720213508 85 227 9.0 15.0 0.00 0.00 0.00 51 1005.6
20190720213009 85 221 11.0 17.0 0.00 0.00 0.00 52 1005.6
20190720212507 85 230 11.0 16.0 0.00 0.00 0.00 52 1005.6
20190720212009 85 222 13.0 20.0 0.00 0.00 0.00 52 1005.7
20190720211507 85 222 10.0 16.0 0.00 0.00 0.00 52 1005.7
20190720211009 86 222 10.0 14.0 0.00 0.00 0.00 51 1005.7
20190720210508 86 220 9.0 13.0 0.00 0.00 0.00 52 1005.8
20190720210009 86 219 9.0 17.0 0.00 0.00 0.00 53 1005.7
20190720205507 86 208 9.0 16.0 0.00 0.00 0.00 53 1005.8
20190720205009 86 210 8.0 12.0 0.00 0.00 0.00 53 1005.8
20190720204508 86 196 7.0 12.0 0.00 0.00 0.00 53 1005.8
20190720204008 87 222 7.0 13.0 0.00 0.00 0.00 52 1005.9
20190720203508 87 209 7.0 12.0 0.00 0.00 0.00 52 1006.0
20190720203010 87 218 8.0 13.0 0.00 0.00 0.00 52 1006.0
20190720202508 87 227 7.0 13.0 0.00 0.00 0.00 52 1006.0
20190720202008 87 217 7.0 10.0 0.00 0.00 0.00 52 1006.1
20190720201508 87 212 7.0 11.0 0.00 0.00 0.00 52 1006.2
20190720201008 87 217 8.0 13.0 0.00 0.00 0.00 51 1006.2
20190720200508 87 234 7.0 12.0 0.00 0.00 0.00 51 1006.3
20190720200009 88 232 8.0 13.0 0.00 0.00 0.00 50 1006.3
20190720195507 88 213 9.0 14.0 0.00 0.00 0.00 50 1006.3
20190720195007 88 232 6.0 9.0 0.00 0.00 0.00 50 1006.3
20190720194507 87 238 9.0 15.0 0.00 0.00 0.00 49 1006.3
20190720194008 87 238 12.0 18.0 0.00 0.00 0.00 49 1006.4
20190720193508 88 215 10.0 14.0 0.00 0.00 0.00 49 1006.5
20190720193009 88 243 10.0 14.0 0.00 0.00 0.00 48 1006.3
20190720192508 88 223 9.0 13.0 0.00 0.00 0.00 48 1006.3
20190720192008 88 232 10.0 14.0 0.00 0.00 0.00 48 1006.3
20190720191508 89 245 7.0 10.0 0.00 0.00 0.00 48 1006.5
20190720191009 89 234 6.0 9.0 0.00 0.00 0.00 47 1006.5
20190720190508 88 222 6.0 9.0 0.00 0.00 0.00 46 1006.4
20190720190009 89 252 6.0 9.0 0.00 0.00 0.00 47 1006.5
20190720185507 88 248 5.0 7.0 0.00 0.00 0.00 47 1006.7
20190720185008 88 239 10.0 14.0 0.00 0.00 0.00 46 1006.6
20190720184507 88 223 7.0 11.0 0.00 0.00 0.00 45 1006.7
20190720184008 88 221 8.0 12.0 0.00 0.00 0.00 43 1006.7
20190720183508 88 279 9.0 12.0 0.00 0.00 0.00 44 1006.8
20190720183009 89 265 12.0 16.0 0.00 0.00 0.00 44 1006.7
20190720182508 88 227 9.0 13.0 0.00 0.00 0.00 44 1006.8
20190720182009 88 250 10.0 15.0 0.00 0.00 0.00 44 1006.9
20190720181507 88 251 10.0 15.0 0.00 0.00 0.00 44 1006.9
20190720181009 88 253 10.0 14.0 0.00 0.00 0.00 43 1006.9
20190720180508 89 238 9.0 13.0 0.00 0.00 0.00 43 1007.0
20190720180011 89 266 7.0 12.0 0.00 0.00 0.00 43 1007.1
20190720175508 88 258 10.0 15.0 0.00 0.00 0.00 43 1007.1
20190720175008 88 245 9.0 14.0 0.00 0.00 0.00 44 1007.2
20190720174508 88 249 10.0 13.0 0.00 0.00 0.00 44 1007.2
20190720174008 88 273 4.0 7.0 0.00 0.00 0.00 45 1007.3
20190720173508 88 277 10.0 14.0 0.00 0.00 0.00 45 1007.3
20190720173009 88 244 9.0 12.0 0.00 0.00 0.00 45 1007.3
20190720172508 88 287 5.0 8.0 0.00 0.00 0.00 45 1007.3
20190720172008 87 283 9.0 12.0 0.00 0.00 0.00 45 1007.3
20190720171508 87 237 6.0 10.0 0.00 0.00 0.00 45 1007.3
20190720171008 87 272 7.0 11.0 0.00 0.00 0.00 45 1007.3
20190720170507 87 281 6.0 10.0 0.00 0.00 0.00 46 1007.4
20190720170009 87 289 9.0 12.0 0.00 0.00 0.00 46 1007.3
20190720165507 87 270 7.0 10.0 0.00 0.00 0.00 46 1007.3
20190720165009 87 244 9.0 12.0 0.00 0.00 0.00 46 1007.3
20190720164508 87 248 6.0 10.0 0.00 0.00 0.00 46 1007.3
20190720164008 87 272 7.0 12.0 0.00 0.00 0.00 47 1007.3
20190720163507 86 269 7.0 10.0 0.00 0.00 0.00 47 1007.4
20190720163009 86 260 8.0 11.0 0.00 0.00 0.00 48 1007.3
20190720162507 86 277 6.0 9.0 0.00 0.00 0.00 47 1007.4
20190720162008 86 299 6.0 8.0 0.00 0.00 0.00 47 1007.4
20190720161508 85 285 6.0 9.0 0.00 0.00 0.00 48 1007.4
20190720161009 85 287 9.0 12.0 0.00 0.00 0.00 49 1007.5
20190720160508 86 267 11.0 15.0 0.00 0.00 0.00 49 1007.4
20190720160009 86 274 8.0 12.0 0.00 0.00 0.00 48 1007.5
20190720155507 86 279 7.0 11.0 0.00 0.00 0.00 49 1007.4
20190720155008 86 258 10.0 13.0 0.00 0.00 0.00 49 1007.5
20190720154508 86 317 7.0 10.0 0.00 0.00 0.00 49 1007.7
20190720154009 86 268 9.0 14.0 0.00 0.00 0.00 50 1007.6
20190720153508 85 293 8.0 11.0 0.00 0.00 0.00 51 1007.5
20190720153009 85 282 7.0 11.0 0.00 0.00 0.00 50 1007.6
20190720152507 85 284 7.0 11.0 0.00 0.00 0.00 51 1007.6
20190720152008 85 301 11.0 15.0 0.00 0.00 0.00 51 1007.6
20190720151508 85 292 8.0 11.0 0.00 0.00 0.00 51 1007.6
20190720151008 84 277 11.0 16.0 0.00 0.00 0.00 51 1007.5
20190720150507 84 287 11.0 14.0 0.00 0.00 0.00 51 1007.4
20190720150009 84 264 10.0 15.0 0.00 0.00 0.00 52 1007.5
20190720145507 84 268 11.0 16.0 0.00 0.00 0.00 53 1007.4
20190720145008 84 280 10.0 16.0 0.00 0.00 0.00 54 1007.5
20190720144507 84 292 7.0 9.0 0.00 0.00 0.00 53 1007.5
20190720144008 84 284 10.0 15.0 0.00 0.00 0.00 54 1007.5
20190720143508 84 287 10.0 13.0 0.00 0.00 0.00 54 1007.4
20190720143008 84 272 11.0 16.0 0.00 0.00 0.00 56 1007.4
20190720142508 83 290 11.0 15.0 0.00 0.00 0.00 58 1007.3
20190720142008 83 283 10.0 13.0 0.00 0.00 0.00 58 1007.2
20190720141508 83 277 10.0 14.0 0.00 0.00 0.00 59 1007.2
20190720141009 83 292 10.0 15.0 0.00 0.00 0.00 59 1007.2
20190720140508 82 277 8.0 12.0 0.00 0.00 0.00 59 1007.2
20190720140009 82 272 11.0 15.0 0.00 0.00 0.00 58 1007.2
20190720135508 82 269 10.0 14.0 0.00 0.00 0.00 59 1007.3
20190720135008 82 276 11.0 15.0 0.00 0.00 0.00 60 1007.2
20190720134508 82 291 11.0 15.0 0.00 0.00 0.00 60 1007.2
20190720134008 82 284 11.0 16.0 0.00 0.00 0.00 61 1007.2
20190720133508 81 266 11.0 15.0 0.00 0.00 0.00 61 1007.2
20190720133009 81 293 11.0 16.0 0.00 0.00 0.00 61 1007.3
20190720132508 81 276 11.0 15.0 0.00 0.00 0.00 61 1007.2
20190720132008 81 274 7.0 11.0 0.00 0.00 0.00 62 1007.2
20190720131507 80 256 10.0 14.0 0.00 0.00 0.00 61 1007.1
20190720131008 80 253 11.0 16.0 0.00 0.00 0.00 62 1007.2
20190720130508 80 266 10.0 15.0 0.00 0.00 0.00 63 1007.1
20190720130010 79 265 11.0 15.0 0.00 0.00 0.00 63 1007.2
20190720125508 79 251 12.0 17.0 0.00 0.00 0.00 63 1007.1
20190720125008 79 255 10.0 14.0 0.00 0.00 0.00 64 1007.2
20190720124508 79 252 10.0 14.0 0.00 0.00 0.00 63 1007.3
20190720124008 79 252 8.0 11.0 0.00 0.00 0.00 64 1007.2
20190720123508 79 250 8.0 12.0 0.00 0.00 0.00 63 1007.3
20190720123008 79 258 9.0 13.0 0.00 0.00 0.00 64 1007.2
20190720122507 79 250 11.0 15.0 0.00 0.00 0.00 63 1007.2
20190720122009 79 268 8.0 12.0 0.00 0.00 0.00 63 1007.1
20190720121508 79 257 11.0 15.0 0.00 0.00 0.00 63 1007.1
20190720121008 79 269 10.0 15.0 0.00 0.00 0.00 63 1007.1
20190720120508 79 270 11.0 16.0 0.00 0.00 0.00 62 1007.1
20190720120008 79 269 10.0 15.0 0.00 0.00 0.00 62 1007.0
20190720115508 79 254 12.0 17.0 0.00 0.00 0.00 63 1007.1
20190720115009 79 263 12.0 16.0 0.00 0.00 0.00 64 1007.0
20190720114507 79 260 9.0 13.0 0.00 0.00 0.00 64 1007.0
20190720114009 78 270 12.0 15.0 0.00 0.00 0.00 64 1006.9
20190720113507 78 264 12.0 18.0 0.00 0.00 0.00 64 1007.0
20190720113009 78 271 12.0 17.0 0.00 0.00 0.00 64 1007.0
20190720112507 78 247 12.0 15.0 0.00 0.00 0.00 64 1006.9
20190720112009 78 255 13.0 18.0 0.00 0.00 0.00 64 1006.9
20190720111507 78 261 13.0 17.0 0.00 0.00 0.00 63 1006.8
20190720111009 78 249 13.0 19.0 0.00 0.00 0.00 64 1006.7
20190720110507 78 263 11.0 16.0 0.00 0.00 0.00 64 1006.6
20190720110009 78 256 13.0 19.0 0.00 0.00 0.00 65 1006.6
20190720105507 78 261 13.0 18.0 0.00 0.00 0.00 65 1006.6
20190720105008 78 249 14.0 19.0 0.00 0.00 0.00 64 1006.6
20190720104508 78 255 12.0 17.0 0.00 0.00 0.00 64 1006.4
20190720104008 78 272 12.0 18.0 0.00 0.00 0.00 63 1006.4
20190720103508 78 273 11.0 16.0 0.00 0.00 0.00 64 1006.4
20190720103008 78 264 11.0 15.0 0.00 0.00 0.00 62 1006.3
20190720102507 79 267 12.0 17.0 0.00 0.00 0.00 62 1006.2
20190720102009 79 268 11.0 14.0 0.00 0.00 0.00 62 1006.2
20190720101508 79 249 11.0 16.0 0.00 0.00 0.00 63 1006.1
20190720101008 79 246 11.0 16.0 0.00 0.00 0.00 63 1006.1
20190720100508 79 258 11.0 15.0 0.00 0.00 0.00 63 1006.0
20190720100009 78 252 12.0 17.0 0.00 0.00 0.00 63 1005.9
20190720095508 78 247 11.0 17.0 0.00 0.00 0.00 64 1005.8
20190720095008 78 256 13.0 18.0 0.00 0.00 0.00 64 1005.6
20190720094507 78 269 11.0 16.0 0.00 0.00 0.00 64 1005.6
20190720094009 78 253 13.0 20.0 0.00 0.00 0.00 64 1005.5
20190720093507 77 259 12.0 18.0 0.00 0.00 0.00 63 1005.8
20190720093009 77 284 10.0 13.0 0.00 0.00 0.00 65 1005.8
20190720092507 77 261 10.0 15.0 0.00 0.00 0.00 65 1005.7
20190720092008 76 261 12.0 17.0 0.00 0.00 0.00 65 1005.6
20190720091516 74 264 9.0 14.0 0.00 0.00 0.00 66 1005.5
20190720091008 74 291 8.0 12.0 0.00 0.00 0.00 64 1005.4
20190720090508 75 316 2.0 4.0 0.00 0.00 0.00 62 1005.6
20190720090010 76 272 6.0 8.0 0.00 0.00 0.00 63 1005.4
20190720085508 76 261 9.0 12.0 0.00 0.00 0.00 64 1005.3
20190720085008 76 282 9.0 14.0 0.00 0.00 0.00 62 1005.4
20190720084508 77 273 7.0 9.0 0.00 0.00 0.00 63 1005.4
20190720084008 77 272 8.0 12.0 0.00 0.00 0.00 63 1005.4
20190720083508 78 278 8.0 12.0 0.00 0.00 0.00 63 1005.4
20190720083009 78 266 8.0 12.0 0.00 0.00 0.00 63 1005.3
20190720082507 78 274 10.0 16.0 0.00 0.00 0.00 63 1005.3
20190720082009 78 263 11.0 15.0 0.00 0.00 0.00 63 1005.3
20190720081508 78 272 12.0 16.0 0.00 0.00 0.00 63 1005.3
20190720081008 78 268 11.0 16.0 0.00 0.00 0.00 63 1005.3
20190720080507 77 269 10.0 15.0 0.00 0.00 0.00 64 1005.4
20190720080010 77 261 11.0 15.0 0.00 0.00 0.00 64 1005.4
20190720075507 77 259 11.0 15.0 0.00 0.00 0.00 64 1005.5
20190720075008 77 256 9.0 13.0 0.00 0.00 0.00 64 1005.5
20190720074508 77 264 10.0 15.0 0.00 0.00 0.00 64 1005.5
20190720074007 77 272 12.0 16.0 0.00 0.00 0.00 65 1005.5
20190720073508 77 259 13.0 18.0 0.00 0.00 0.00 65 1005.5
20190720073008 77 259 12.0 16.0 0.00 0.00 0.00 63 1005.5
20190720072507 77 265 10.0 14.0 0.00 0.00 0.00 64 1005.4
20190720072009 77 285 13.0 17.0 0.00 0.00 0.00 64 1005.4
20190720071508 77 267 10.0 14.0 0.00 0.00 0.00 64 1005.4
20190720071008 77 258 10.0 15.0 0.00 0.00 0.00 64 1005.4
20190720070507 77 267 9.0 13.0 0.00 0.00 0.00 65 1005.5
20190720070007 77 269 10.0 14.0 0.00 0.00 0.00 65 1005.3
20190720065507 77 263 11.0 15.0 0.00 0.00 0.00 65 1005.3
20190720065008 77 280 10.0 15.0 0.00 0.00 0.00 65 1005.4
20190720064507 77 269 9.0 13.0 0.00 0.00 0.00 64 1005.5
20190720064009 77 270 11.0 16.0 0.00 0.00 0.00 64 1005.5
20190720063508 77 259 11.0 15.0 0.00 0.00 0.00 66 1005.6
20190720063008 77 267 12.0 17.0 0.00 0.00 0.00 66 1005.5